createdAt,value
2017-01-22T00:00:24.695Z,0
2017-01-22T00:01:38.140Z,0
2017-01-22T00:02:51.787Z,0
2017-01-22T00:04:05.269Z,0
2017-01-22T00:05:18.775Z,0
2017-01-22T00:06:32.539Z,0
2017-01-22T00:07:46.058Z,0
2017-01-22T00:08:59.525Z,0
2017-01-22T00:10:13.048Z,0
2017-01-22T00:11:26.547Z,0
2017-01-22T00:12:40.365Z,0
2017-01-22T00:13:53.907Z,0
2017-01-22T00:15:07.406Z,0
2017-01-22T00:16:20.927Z,0
2017-01-22T00:17:34.349Z,0
2017-01-22T00:18:48.430Z,0
2017-01-22T00:20:02.018Z,0
2017-01-22T00:21:15.502Z,0
2017-01-22T00:22:28.997Z,0
2017-01-22T00:23:42.489Z,0
2017-01-22T00:24:56.319Z,0
2017-01-22T00:26:09.837Z,0
2017-01-22T00:27:23.386Z,0
2017-01-22T00:28:39.133Z,0
2017-01-22T00:29:52.662Z,0
2017-01-22T00:31:06.459Z,0
2017-01-22T00:32:20.354Z,0
2017-01-22T00:33:33.810Z,0
2017-01-22T00:34:47.431Z,0
2017-01-22T00:36:00.867Z,0
2017-01-22T00:37:14.667Z,0
2017-01-22T00:38:28.186Z,0
2017-01-22T00:39:41.701Z,0
2017-01-22T00:40:55.649Z,0
2017-01-22T00:42:09.160Z,0
2017-01-22T00:43:23.017Z,0
2017-01-22T00:44:36.998Z,0
2017-01-22T00:45:50.558Z,0
2017-01-22T00:47:07.349Z,0
2017-01-22T00:48:21.154Z,0
2017-01-22T00:49:41.225Z,0
2017-01-22T00:50:55.599Z,0
2017-01-22T00:52:09.114Z,0
2017-01-22T00:53:22.667Z,0
2017-01-22T00:54:40.391Z,0
2017-01-22T00:56:01.309Z,0
2017-01-22T00:57:26.948Z,0
2017-01-22T00:58:48.246Z,0
2017-01-22T01:00:09.889Z,0
2017-01-22T01:01:30.252Z,0
2017-01-22T01:02:49.475Z,0
2017-01-22T01:04:09.694Z,0
2017-01-22T01:05:26.304Z,0
2017-01-22T01:06:40.342Z,0
2017-01-22T01:07:53.945Z,0
2017-01-22T01:09:07.506Z,0
2017-01-22T01:10:21.838Z,0
2017-01-22T01:11:35.484Z,0
2017-01-22T01:12:49.333Z,0
2017-01-22T01:14:02.871Z,0
2017-01-22T01:15:16.618Z,0
2017-01-22T01:16:31.323Z,0
2017-01-22T01:17:44.764Z,0
2017-01-22T01:18:58.439Z,0
2017-01-22T01:20:12.974Z,0
2017-01-22T01:21:26.939Z,0
2017-01-22T01:22:41.455Z,0
2017-01-22T01:23:56.858Z,0
2017-01-22T01:25:11.351Z,0
2017-01-22T01:26:25.646Z,0
2017-01-22T01:27:41.409Z,0
2017-01-22T01:28:56.444Z,0
2017-01-22T01:30:11.623Z,0
2017-01-22T01:31:25.907Z,0
2017-01-22T01:32:40.738Z,0
2017-01-22T01:33:56.023Z,0
2017-01-22T01:35:09.666Z,0
2017-01-22T01:36:23.935Z,0
2017-01-22T01:37:38.870Z,0
2017-01-22T01:38:52.623Z,0
2017-01-22T01:40:06.267Z,0
2017-01-22T01:41:20.450Z,0
2017-01-22T01:42:34.237Z,0
2017-01-22T01:43:48.552Z,0
2017-01-22T01:45:03.391Z,0
2017-01-22T01:46:20.032Z,0
2017-01-22T01:47:33.595Z,0
2017-01-22T01:48:47.086Z,0
2017-01-22T01:50:00.911Z,0
2017-01-22T01:51:14.365Z,0
2017-01-22T01:52:27.774Z,0
2017-01-22T01:53:41.248Z,0
2017-01-22T01:54:54.649Z,0
2017-01-22T01:56:08.425Z,0
2017-01-22T01:57:21.890Z,0
2017-01-22T01:58:35.363Z,0
2017-01-22T01:59:48.847Z,0
2017-01-22T02:01:02.300Z,0
2017-01-22T02:02:16.031Z,0
2017-01-22T02:03:29.506Z,0
2017-01-22T02:04:43.425Z,0
2017-01-22T02:05:56.877Z,0
2017-01-22T02:07:29.534Z,0
2017-01-22T02:08:43.694Z,0
2017-01-22T02:09:57.126Z,0
2017-01-22T02:11:10.583Z,0
2017-01-22T02:12:24.031Z,0
2017-01-22T02:13:37.528Z,0
2017-01-22T02:14:51.276Z,0
2017-01-22T02:16:04.722Z,0
2017-01-22T02:17:18.220Z,0
2017-01-22T02:18:32.106Z,0
2017-01-22T02:19:45.622Z,0
2017-01-22T02:20:59.425Z,0
2017-01-22T02:22:12.929Z,0
2017-01-22T02:23:26.419Z,0
2017-01-22T02:24:39.897Z,0
2017-01-22T02:25:53.410Z,0
2017-01-22T02:27:07.758Z,0
2017-01-22T02:28:21.290Z,0
2017-01-22T02:29:34.772Z,0
2017-01-22T02:30:48.202Z,0
2017-01-22T02:32:01.753Z,0
2017-01-22T02:33:15.610Z,0
2017-01-22T02:34:29.194Z,0
2017-01-22T02:35:42.831Z,0
2017-01-22T02:36:56.863Z,0
2017-01-22T02:38:10.403Z,0
2017-01-22T02:39:24.378Z,0
2017-01-22T02:40:38.103Z,0
2017-01-22T02:41:51.721Z,0
2017-01-22T02:43:05.770Z,0
2017-01-22T02:44:19.227Z,0
2017-01-22T02:45:32.980Z,0
2017-01-22T02:46:46.388Z,0
2017-01-22T02:48:00.314Z,0
2017-01-22T02:49:13.768Z,0
2017-01-22T02:50:27.199Z,0
2017-01-22T02:51:41.016Z,0
2017-01-22T02:52:54.405Z,0
2017-01-22T02:54:08.059Z,0
2017-01-22T02:55:21.506Z,0
2017-01-22T02:56:36.210Z,0
2017-01-22T02:57:49.928Z,0
2017-01-22T02:59:03.469Z,0
2017-01-22T03:00:16.909Z,0
2017-01-22T03:01:31.625Z,0
2017-01-22T03:02:47.742Z,0
2017-01-22T03:04:01.499Z,0
2017-01-22T03:05:15.010Z,0
2017-01-22T03:06:43.347Z,0
2017-01-22T03:07:56.909Z,0
2017-01-22T03:09:10.348Z,0
2017-01-22T03:10:24.188Z,0
2017-01-22T03:11:37.670Z,0
2017-01-22T03:12:51.148Z,0
2017-01-22T03:14:04.628Z,0
2017-01-22T03:15:18.028Z,0
2017-01-22T03:16:31.789Z,0
2017-01-22T03:17:45.330Z,0
2017-01-22T03:18:58.755Z,0
2017-01-22T03:20:12.714Z,0
2017-01-22T03:21:26.216Z,0
2017-01-22T03:22:39.944Z,0
2017-01-22T03:23:53.441Z,0
2017-01-22T03:25:06.897Z,0
2017-01-22T03:26:20.330Z,0
2017-01-22T03:27:33.856Z,0
2017-01-22T03:28:49.279Z,0
2017-01-22T03:30:02.712Z,0
2017-01-22T03:31:16.158Z,0
2017-01-22T03:32:29.623Z,0
2017-01-22T03:33:43.111Z,0
2017-01-22T03:34:56.835Z,0
2017-01-22T03:36:10.756Z,0
2017-01-22T03:37:24.250Z,0
2017-01-22T03:38:37.656Z,0
2017-01-22T03:39:51.189Z,0
2017-01-22T03:41:05.326Z,0
2017-01-22T03:42:18.807Z,0
2017-01-22T03:43:32.303Z,0
2017-01-22T03:44:45.787Z,0
2017-01-22T03:45:59.221Z,0
2017-01-22T03:47:13.019Z,0
2017-01-22T03:48:26.479Z,0
2017-01-22T03:49:40.000Z,0
2017-01-22T03:50:53.426Z,0
2017-01-22T03:52:06.850Z,0
2017-01-22T03:53:20.538Z,0
2017-01-22T03:54:33.977Z,0
2017-01-22T03:55:47.492Z,0
2017-01-22T03:57:00.943Z,0
2017-01-22T03:58:14.534Z,0
2017-01-22T03:59:28.274Z,0
2017-01-22T04:00:41.745Z,0
2017-01-22T04:01:55.179Z,0
2017-01-22T04:03:08.587Z,0
2017-01-22T04:04:22.183Z,0
2017-01-22T04:05:35.992Z,0
2017-01-22T04:06:49.429Z,0
2017-01-22T04:08:02.866Z,0
2017-01-22T04:09:16.325Z,0
2017-01-22T04:10:30.120Z,0
2017-01-22T04:11:43.902Z,0
2017-01-22T04:12:57.411Z,0
2017-01-22T04:14:10.833Z,0
2017-01-22T04:15:24.313Z,0
2017-01-22T04:16:37.792Z,0
2017-01-22T04:17:51.456Z,0
2017-01-22T04:19:07.029Z,0
2017-01-22T04:20:20.477Z,0
2017-01-22T04:21:33.946Z,0
2017-01-22T04:22:47.459Z,0
2017-01-22T04:24:01.734Z,0
2017-01-22T04:25:15.289Z,0
2017-01-22T04:26:28.854Z,0
2017-01-22T04:27:42.392Z,0
2017-01-22T04:28:56.050Z,0
2017-01-22T04:30:09.969Z,0
2017-01-22T04:31:23.526Z,0
2017-01-22T04:32:37.191Z,0
2017-01-22T04:33:50.737Z,0
2017-01-22T04:35:04.392Z,0
2017-01-22T04:36:18.246Z,0
2017-01-22T04:37:31.893Z,0
2017-01-22T04:38:45.389Z,0
2017-01-22T04:39:58.965Z,0
2017-01-22T04:41:12.871Z,0
2017-01-22T04:42:26.909Z,0
2017-01-22T04:43:40.673Z,0
2017-01-22T04:44:54.185Z,0
2017-01-22T04:46:07.845Z,0
2017-01-22T04:47:21.537Z,0
2017-01-22T04:48:35.673Z,0
2017-01-22T04:49:49.914Z,0
2017-01-22T04:51:03.529Z,0
2017-01-22T04:52:17.070Z,0
2017-01-22T04:53:30.562Z,0
2017-01-22T04:54:44.528Z,0
2017-01-22T04:55:58.052Z,0
2017-01-22T04:57:11.704Z,0
2017-01-22T04:58:25.644Z,0
2017-01-22T04:59:40.207Z,0
2017-01-22T05:00:54.772Z,0
2017-01-22T05:02:08.198Z,0
2017-01-22T05:03:21.714Z,0
2017-01-22T05:04:36.812Z,0
2017-01-22T05:05:50.366Z,0
2017-01-22T05:07:05.041Z,0
2017-01-22T05:08:18.508Z,0
2017-01-22T05:09:32.657Z,0
2017-01-22T05:10:46.942Z,0
2017-01-22T05:12:00.714Z,0
2017-01-22T05:13:14.603Z,0
2017-01-22T05:14:29.349Z,0
2017-01-22T05:15:42.968Z,0
2017-01-22T05:16:56.654Z,0
2017-01-22T05:18:11.587Z,0
2017-01-22T05:19:25.571Z,0
2017-01-22T05:20:39.384Z,0
2017-01-22T05:21:53.015Z,0
2017-01-22T05:23:06.594Z,0
2017-01-22T05:24:20.324Z,0
2017-01-22T05:25:34.423Z,0
2017-01-22T05:26:48.164Z,0
2017-01-22T05:28:02.123Z,0
2017-01-22T05:29:15.693Z,0
2017-01-22T05:30:29.468Z,0
2017-01-22T05:31:43.166Z,0
2017-01-22T05:32:56.618Z,0
2017-01-22T05:34:10.027Z,0
2017-01-22T05:35:25.806Z,0
2017-01-22T05:36:39.316Z,0
2017-01-22T05:37:53.048Z,0
2017-01-22T05:39:06.492Z,0
2017-01-22T05:40:20.192Z,0
2017-01-22T05:41:34.893Z,0
2017-01-22T05:42:48.355Z,0
2017-01-22T05:44:02.178Z,0
2017-01-22T05:45:15.709Z,0
2017-01-22T05:46:29.294Z,0
2017-01-22T05:47:42.800Z,0
2017-01-22T05:48:56.311Z,0
2017-01-22T05:50:29.301Z,0
2017-01-22T05:51:42.836Z,0
2017-01-22T05:52:56.299Z,0
2017-01-22T05:54:10.287Z,0
2017-01-22T05:55:23.901Z,0
2017-01-22T05:56:38.158Z,0
2017-01-22T05:57:51.767Z,0
2017-01-22T05:59:05.651Z,0
2017-01-22T06:00:19.074Z,0
2017-01-22T06:01:32.562Z,0
2017-01-22T06:02:46.353Z,0
2017-01-22T06:04:00.233Z,0
2017-01-22T06:05:13.841Z,0
2017-01-22T06:06:27.281Z,0
2017-01-22T06:07:40.777Z,0
2017-01-22T06:08:54.515Z,0
2017-01-22T06:10:08.411Z,0
2017-01-22T06:11:21.949Z,0
2017-01-22T06:12:35.601Z,0
2017-01-22T06:13:49.049Z,0
2017-01-22T06:15:03.013Z,0
2017-01-22T06:16:16.541Z,0
2017-01-22T06:17:29.986Z,0
2017-01-22T06:18:43.537Z,0
2017-01-22T06:19:56.990Z,0
2017-01-22T06:21:10.715Z,0
2017-01-22T06:22:24.310Z,0
2017-01-22T06:23:38.078Z,0
2017-01-22T06:24:51.567Z,0
2017-01-22T06:26:05.019Z,0
2017-01-22T06:27:18.769Z,0
2017-01-22T06:28:33.551Z,0
2017-01-22T06:29:47.922Z,0
2017-01-22T06:31:01.337Z,0
2017-01-22T06:32:14.765Z,0
2017-01-22T06:33:28.629Z,0
2017-01-22T06:34:42.066Z,0
2017-01-22T06:35:56.049Z,0
2017-01-22T06:37:09.510Z,0
2017-01-22T06:38:23.349Z,0
2017-01-22T06:39:37.112Z,0
2017-01-22T06:40:50.722Z,0
2017-01-22T06:42:04.195Z,0
2017-01-22T06:43:17.652Z,0
2017-01-22T06:44:31.152Z,0
2017-01-22T06:45:45.295Z,0
2017-01-22T06:46:58.739Z,0
2017-01-22T06:48:12.148Z,0
2017-01-22T06:49:25.605Z,0
2017-01-22T06:50:40.006Z,0
2017-01-22T06:51:55.907Z,0
2017-01-22T06:53:09.371Z,0
2017-01-22T06:54:22.813Z,0
2017-01-22T06:55:36.268Z,0
2017-01-22T06:56:49.711Z,0
2017-01-22T06:58:03.436Z,0
2017-01-22T06:59:17.406Z,0
2017-01-22T07:00:30.885Z,0
2017-01-22T07:01:44.746Z,0
2017-01-22T07:02:58.183Z,0
2017-01-22T07:04:11.903Z,0
2017-01-22T07:05:25.319Z,0
2017-01-22T07:06:38.773Z,0
2017-01-22T07:07:52.194Z,0
2017-01-22T07:09:05.621Z,0
2017-01-22T07:10:19.360Z,5
2017-01-22T07:11:33.224Z,5
2017-01-22T07:12:46.635Z,5
2017-01-22T07:14:00.031Z,5
2017-01-22T07:15:13.529Z,5
2017-01-22T07:16:27.399Z,5
2017-01-22T07:17:40.862Z,5
2017-01-22T07:18:54.332Z,5
2017-01-22T07:20:07.759Z,10
2017-01-22T07:21:21.238Z,10
2017-01-22T07:22:35.446Z,10
2017-01-22T07:23:48.877Z,10
2017-01-22T07:25:02.786Z,10
2017-01-22T07:26:16.350Z,10
2017-01-22T07:27:29.947Z,15
2017-01-22T07:28:43.929Z,15
2017-01-22T07:29:58.011Z,15
2017-01-22T07:31:11.993Z,15
2017-01-22T07:32:25.504Z,15
2017-01-22T07:33:39.032Z,15
2017-01-22T07:34:52.846Z,20
2017-01-22T07:36:06.716Z,20
2017-01-22T07:37:21.396Z,20
2017-01-22T07:38:34.916Z,20
2017-01-22T07:39:48.413Z,20
2017-01-22T07:41:02.326Z,25
2017-01-22T07:42:16.207Z,25
2017-01-22T07:43:29.792Z,25
2017-01-22T07:44:43.726Z,25
2017-01-22T07:45:58.011Z,25
2017-01-22T07:47:13.812Z,30
2017-01-22T07:48:27.334Z,30
2017-01-22T07:49:41.187Z,30
2017-01-22T07:50:54.668Z,30
2017-01-22T07:52:09.328Z,35
2017-01-22T07:53:23.310Z,35
2017-01-22T07:54:36.792Z,35
2017-01-22T07:55:50.309Z,35
2017-01-22T07:57:04.123Z,35
2017-01-22T07:58:18.066Z,35
2017-01-22T07:59:32.137Z,40
2017-01-22T08:00:47.159Z,40
2017-01-22T08:02:00.750Z,40
2017-01-22T08:03:14.212Z,40
2017-01-22T08:04:27.808Z,40
2017-01-22T08:05:41.604Z,45
2017-01-22T08:06:55.210Z,45
2017-01-22T08:08:11.040Z,45
2017-01-22T08:09:24.999Z,45
2017-01-22T08:10:39.154Z,45
2017-01-22T08:11:52.973Z,45
2017-01-22T08:13:06.614Z,50
2017-01-22T08:14:20.183Z,50
2017-01-22T08:15:33.773Z,50
2017-01-22T08:16:47.213Z,50
2017-01-22T08:18:01.041Z,50
2017-01-22T08:19:14.810Z,50
2017-01-22T08:20:28.325Z,55
2017-01-22T08:21:41.900Z,55
2017-01-22T08:22:55.573Z,55
2017-01-22T08:24:09.374Z,55
2017-01-22T08:25:24.136Z,55
2017-01-22T08:26:37.754Z,55
2017-01-22T08:27:52.129Z,60
2017-01-22T08:29:06.035Z,60
2017-01-22T08:30:20.014Z,60
2017-01-22T08:31:33.514Z,60
2017-01-22T08:32:47.225Z,60
2017-01-22T08:34:00.894Z,60
2017-01-22T08:35:14.594Z,65
2017-01-22T08:36:33.820Z,65
2017-01-22T08:37:47.295Z,65
2017-01-22T08:39:00.717Z,65
2017-01-22T08:40:14.801Z,65
2017-01-22T08:41:29.294Z,65
2017-01-22T08:42:43.186Z,70
2017-01-22T08:43:56.630Z,70
2017-01-22T08:45:10.094Z,70
2017-01-22T08:46:23.589Z,70
2017-01-22T08:47:37.163Z,70
2017-01-22T08:48:51.400Z,70
2017-01-22T08:50:04.860Z,70
2017-01-22T08:51:18.371Z,70
2017-01-22T08:52:31.941Z,75
2017-01-22T08:53:45.452Z,75
2017-01-22T08:54:59.183Z,75
2017-01-22T08:56:12.636Z,80
2017-01-22T08:57:26.230Z,75
2017-01-22T08:58:40.378Z,80
2017-01-22T08:59:53.892Z,80
2017-01-22T09:01:07.675Z,75
2017-01-22T09:02:21.245Z,80
2017-01-22T09:03:34.713Z,80
2017-01-22T09:04:48.218Z,80
2017-01-22T09:06:01.708Z,85
2017-01-22T09:07:15.470Z,80
2017-01-22T09:08:29.137Z,85
2017-01-22T09:09:42.806Z,80
2017-01-22T09:10:56.416Z,85
2017-01-22T09:12:09.919Z,85
2017-01-22T09:13:23.849Z,85
2017-01-22T09:14:37.428Z,85
2017-01-22T09:15:50.900Z,85
2017-01-22T09:17:04.454Z,85
2017-01-22T09:18:18.034Z,85
2017-01-22T09:19:31.903Z,85
2017-01-22T09:20:45.373Z,85
2017-01-22T09:21:58.807Z,85
2017-01-22T09:23:12.224Z,85
2017-01-22T09:24:28.002Z,85
2017-01-22T09:25:41.834Z,90
2017-01-22T09:26:55.326Z,90
2017-01-22T09:28:08.943Z,90
2017-01-22T09:29:22.715Z,90
2017-01-22T09:30:36.274Z,90
2017-01-22T09:31:50.043Z,90
2017-01-22T09:33:03.518Z,90
2017-01-22T09:34:17.465Z,90
2017-01-22T09:35:31.390Z,90
2017-01-22T09:36:44.908Z,90
2017-01-22T09:37:58.693Z,90
2017-01-22T09:39:13.461Z,90
2017-01-22T09:40:26.982Z,90
2017-01-22T09:41:40.462Z,90
2017-01-22T09:42:53.928Z,95
2017-01-22T09:44:07.700Z,95
2017-01-22T09:45:21.244Z,95
2017-01-22T09:46:35.198Z,95
2017-01-22T09:47:48.727Z,95
2017-01-22T09:49:02.230Z,95
2017-01-22T09:50:17.047Z,95
2017-01-22T09:51:30.674Z,95
2017-01-22T09:52:44.243Z,95
2017-01-22T09:53:59.639Z,95
2017-01-22T09:55:14.291Z,95
2017-01-22T09:56:28.128Z,95
2017-01-22T09:57:42.034Z,95
2017-01-22T09:58:55.671Z,95
2017-01-22T10:00:09.161Z,95
2017-01-22T10:01:23.084Z,95
2017-01-22T10:02:37.419Z,95
2017-01-22T10:03:50.932Z,95
2017-01-22T10:05:04.411Z,95
2017-01-22T10:06:19.710Z,100
2017-01-22T10:07:33.253Z,100
2017-01-22T10:08:47.330Z,100
2017-01-22T10:10:00.878Z,100
2017-01-22T10:11:14.482Z,100
2017-01-22T10:12:29.790Z,100
2017-01-22T10:13:43.311Z,100
2017-01-22T10:14:57.090Z,100
2017-01-22T10:16:10.661Z,100
2017-01-22T10:17:24.191Z,100
2017-01-22T10:18:37.792Z,100
2017-01-22T10:19:51.279Z,100
2017-01-22T10:21:05.176Z,100
2017-01-22T10:22:18.721Z,100
2017-01-22T10:23:32.174Z,100
2017-01-22T10:24:45.709Z,100
2017-01-22T10:25:59.194Z,100
2017-01-22T10:27:13.019Z,100
2017-01-22T10:28:26.503Z,100
2017-01-22T10:29:39.952Z,100
2017-01-22T10:30:53.884Z,100
2017-01-22T10:32:07.351Z,100
2017-01-22T10:33:21.146Z,100
2017-01-22T10:34:34.689Z,100
2017-01-22T10:35:48.193Z,100
2017-01-22T10:37:01.668Z,100
2017-01-22T10:38:15.182Z,100
2017-01-22T10:39:28.759Z,100
2017-01-22T10:40:44.521Z,100
2017-01-22T10:41:58.102Z,100
2017-01-22T10:43:12.198Z,100
2017-01-22T10:44:25.666Z,100
2017-01-22T10:45:39.495Z,100
2017-01-22T10:47:02.416Z,100
2017-01-22T10:48:20.765Z,100
2017-01-22T10:49:34.311Z,100
2017-01-22T10:50:47.860Z,100
2017-01-22T10:52:01.687Z,100
2017-01-22T10:53:15.737Z,100
2017-01-22T10:54:29.315Z,100
2017-01-22T10:55:42.907Z,100
2017-01-22T10:56:56.500Z,100
2017-01-22T10:58:11.331Z,100
2017-01-22T10:59:24.863Z,100
2017-01-22T11:00:38.362Z,100
2017-01-22T11:01:52.066Z,100
2017-01-22T11:03:05.593Z,100
2017-01-22T11:04:21.222Z,100
2017-01-22T11:05:34.833Z,100
2017-01-22T11:06:48.535Z,100
2017-01-22T11:08:02.104Z,100
2017-01-22T11:09:16.477Z,100
2017-01-22T11:10:30.464Z,100
2017-01-22T11:11:44.089Z,100
2017-01-22T11:12:57.730Z,100
2017-01-22T11:14:11.403Z,100
2017-01-22T11:15:25.014Z,100
2017-01-22T11:16:39.041Z,100
2017-01-22T11:17:52.669Z,100
2017-01-22T11:19:06.382Z,100
2017-01-22T11:20:20.009Z,100
2017-01-22T11:21:34.334Z,100
2017-01-22T11:22:48.418Z,100
2017-01-22T11:24:02.964Z,100
2017-01-22T11:25:16.625Z,100
2017-01-22T11:26:30.057Z,100
2017-01-22T11:27:43.532Z,100
2017-01-22T11:28:57.313Z,100
2017-01-22T11:30:12.165Z,100
2017-01-22T11:31:25.770Z,100
2017-01-22T11:32:39.840Z,100
2017-01-22T11:33:53.400Z,100
2017-01-22T11:35:07.348Z,100
2017-01-22T11:36:20.794Z,100
2017-01-22T11:37:34.659Z,100
2017-01-22T11:38:48.284Z,100
2017-01-22T11:40:01.975Z,100
2017-01-22T11:41:16.256Z,100
2017-01-22T11:42:29.882Z,100
2017-01-22T11:43:44.019Z,100
2017-01-22T11:44:57.496Z,100
2017-01-22T11:46:12.509Z,100
2017-01-22T11:47:26.681Z,100
2017-01-22T11:48:40.304Z,100
2017-01-22T11:49:53.812Z,100
2017-01-22T11:51:07.639Z,100
2017-01-22T11:52:21.285Z,100
2017-01-22T11:53:35.311Z,100
2017-01-22T11:54:49.129Z,100
2017-01-22T11:56:02.801Z,100
2017-01-22T11:57:19.413Z,100
2017-01-22T11:58:33.067Z,100
2017-01-22T11:59:47.367Z,100
2017-01-22T12:01:01.019Z,100
2017-01-22T12:02:16.058Z,100
2017-01-22T12:03:29.731Z,100
2017-01-22T12:04:43.317Z,100
2017-01-22T12:05:57.296Z,100
2017-01-22T12:07:10.977Z,100
2017-01-22T12:08:24.614Z,95
2017-01-22T12:09:38.611Z,95
2017-01-22T12:10:52.533Z,95
2017-01-22T12:12:06.630Z,95
2017-01-22T12:13:20.362Z,95
2017-01-22T12:14:34.555Z,95
2017-01-22T12:15:48.250Z,95
2017-01-22T12:17:01.986Z,95
2017-01-22T12:18:16.125Z,95
2017-01-22T12:19:30.274Z,95
2017-01-22T12:20:43.853Z,95
2017-01-22T12:21:58.199Z,95
2017-01-22T12:23:12.478Z,95
2017-01-22T12:24:27.932Z,95
2017-01-22T12:25:41.391Z,95
2017-01-22T12:26:55.471Z,95
2017-01-22T12:28:10.076Z,95
2017-01-22T12:29:25.563Z,95
2017-01-22T12:30:40.522Z,95
2017-01-22T12:31:54.626Z,95
2017-01-22T12:33:10.107Z,95
2017-01-22T12:34:24.742Z,95
2017-01-22T12:35:38.540Z,95
2017-01-22T12:36:55.528Z,95
2017-01-22T12:38:13.776Z,95
2017-01-22T12:39:28.942Z,95
2017-01-22T12:40:43.206Z,95
2017-01-22T12:42:02.010Z,95
2017-01-22T12:43:15.710Z,95
2017-01-22T12:44:31.723Z,95
2017-01-22T12:45:46.445Z,95
2017-01-22T12:47:01.496Z,95
2017-01-22T12:48:17.199Z,95
2017-01-22T12:49:31.225Z,95
2017-01-22T12:50:46.230Z,95
2017-01-22T12:52:01.034Z,95
2017-01-22T12:53:18.701Z,95
2017-01-22T12:54:35.355Z,95
2017-01-22T12:55:49.532Z,95
2017-01-22T12:57:03.864Z,95
2017-01-22T12:58:19.254Z,95
2017-01-22T12:59:34.089Z,95
2017-01-22T13:00:49.179Z,95
2017-01-22T13:02:03.473Z,95
2017-01-22T13:03:18.736Z,95
2017-01-22T13:04:32.825Z,90
2017-01-22T13:05:46.683Z,90
2017-01-22T13:07:00.841Z,90
2017-01-22T13:08:16.727Z,90
2017-01-22T13:09:30.809Z,90
2017-01-22T13:10:45.243Z,90
2017-01-22T13:11:58.738Z,90
2017-01-22T13:13:12.608Z,90
2017-01-22T13:14:29.205Z,90
2017-01-22T13:15:42.694Z,90
2017-01-22T13:16:56.291Z,90
2017-01-22T13:18:10.213Z,90
2017-01-22T13:19:25.514Z,90
2017-01-22T13:20:40.075Z,90
2017-01-22T13:21:55.835Z,90
2017-01-22T13:23:11.103Z,90
2017-01-22T13:24:27.056Z,90
2017-01-22T13:25:40.980Z,90
2017-01-22T13:26:56.124Z,90
2017-01-22T13:28:10.337Z,90
2017-01-22T13:29:24.102Z,90
2017-01-22T13:30:37.784Z,90
2017-01-22T13:31:51.710Z,90
2017-01-22T13:33:06.173Z,90
2017-01-22T13:34:19.820Z,85
2017-01-22T13:35:33.900Z,85
2017-01-22T13:36:47.562Z,85
2017-01-22T13:38:01.600Z,85
2017-01-22T13:39:15.387Z,85
2017-01-22T13:40:28.940Z,85
2017-01-22T13:41:42.604Z,85
2017-01-22T13:42:56.219Z,85
2017-01-22T13:44:10.547Z,85
2017-01-22T13:45:24.320Z,85
2017-01-22T13:46:37.964Z,85
2017-01-22T13:47:52.704Z,85
2017-01-22T13:49:06.268Z,85
2017-01-22T13:50:20.771Z,85
2017-01-22T13:51:36.299Z,85
2017-01-22T13:52:50.782Z,80
2017-01-22T13:54:04.317Z,80
2017-01-22T13:55:18.257Z,80
2017-01-22T13:56:32.516Z,80
2017-01-22T13:57:46.544Z,80
2017-01-22T13:59:00.700Z,80
2017-01-22T14:00:14.905Z,80
2017-01-22T14:01:28.865Z,80
2017-01-22T14:02:43.073Z,80
2017-01-22T14:03:56.981Z,80
2017-01-22T14:05:10.737Z,80
2017-01-22T14:06:24.481Z,80
2017-01-22T14:07:38.567Z,75
2017-01-22T14:08:52.863Z,75
2017-01-22T14:10:08.069Z,75
2017-01-22T14:11:21.734Z,75
2017-01-22T14:12:36.067Z,75
2017-01-22T14:13:50.702Z,75
2017-01-22T14:15:04.849Z,75
2017-01-22T14:16:19.570Z,75
2017-01-22T14:17:33.494Z,75
2017-01-22T14:18:47.708Z,75
2017-01-22T14:20:01.267Z,70
2017-01-22T14:21:16.028Z,70
2017-01-22T14:22:29.714Z,70
2017-01-22T14:23:43.188Z,70
2017-01-22T14:24:56.669Z,70
2017-01-22T14:26:10.465Z,70
2017-01-22T14:27:39.482Z,70
2017-01-22T14:28:53.203Z,70
2017-01-22T14:30:06.948Z,70
2017-01-22T14:31:23.276Z,65
2017-01-22T14:32:38.124Z,65
2017-01-22T14:33:51.938Z,65
2017-01-22T14:35:05.914Z,65
2017-01-22T14:36:19.905Z,65
2017-01-22T14:37:34.055Z,65
2017-01-22T14:38:48.628Z,65
2017-01-22T14:40:02.885Z,60
2017-01-22T14:41:16.692Z,60
2017-01-22T14:42:30.455Z,60
2017-01-22T14:43:43.939Z,60
2017-01-22T14:44:58.816Z,60
2017-01-22T14:46:13.088Z,60
2017-01-22T14:47:27.932Z,55
2017-01-22T14:48:42.581Z,55
2017-01-22T14:49:58.005Z,55
2017-01-22T14:51:12.724Z,55
2017-01-22T14:52:26.763Z,55
2017-01-22T14:53:41.833Z,55
2017-01-22T14:54:55.650Z,50
2017-01-22T14:56:10.693Z,50
2017-01-22T14:57:24.691Z,50
2017-01-22T14:58:38.888Z,50
2017-01-22T14:59:52.594Z,50
2017-01-22T15:01:06.460Z,50
2017-01-22T15:02:20.516Z,45
2017-01-22T15:03:34.667Z,45
2017-01-22T15:04:49.029Z,45
2017-01-22T15:06:03.115Z,45
2017-01-22T15:07:17.403Z,45
2017-01-22T15:08:31.555Z,45
2017-01-22T15:09:45.126Z,40
2017-01-22T15:10:59.032Z,40
2017-01-22T15:12:13.348Z,40
2017-01-22T15:13:26.804Z,40
2017-01-22T15:14:40.768Z,40
2017-01-22T15:15:54.888Z,35
2017-01-22T15:17:10.175Z,35
2017-01-22T15:18:24.903Z,35
2017-01-22T15:19:38.684Z,35
2017-01-22T15:20:52.876Z,35
2017-01-22T15:22:06.464Z,30
2017-01-22T15:23:20.457Z,30
2017-01-22T15:24:34.595Z,30
2017-01-22T15:25:48.202Z,30
2017-01-22T15:27:01.846Z,30
2017-01-22T15:28:15.359Z,25
2017-01-22T15:29:29.437Z,25
2017-01-22T15:30:42.940Z,25
2017-01-22T15:31:57.561Z,25
2017-01-22T15:33:11.191Z,25
2017-01-22T15:34:24.803Z,25
2017-01-22T15:35:38.774Z,20
2017-01-22T15:36:52.480Z,20
2017-01-22T15:38:06.085Z,20
2017-01-22T15:39:19.995Z,20
2017-01-22T15:40:33.613Z,20
2017-01-22T15:41:47.670Z,15
2017-01-22T15:43:01.364Z,15
2017-01-22T15:44:15.021Z,15
2017-01-22T15:45:29.804Z,15
2017-01-22T15:46:43.287Z,15
2017-01-22T15:47:59.298Z,10
2017-01-22T15:49:12.818Z,10
2017-01-22T15:50:27.711Z,10
2017-01-22T15:51:41.335Z,10
2017-01-22T15:52:54.900Z,10
2017-01-22T15:54:08.909Z,10
2017-01-22T15:55:23.745Z,5
2017-01-22T15:56:37.333Z,5
2017-01-22T15:57:51.435Z,5
2017-01-22T15:59:05.098Z,5
2017-01-22T16:00:18.917Z,5
2017-01-22T16:01:32.447Z,5
2017-01-22T16:02:46.377Z,5
2017-01-22T16:03:59.903Z,0
2017-01-22T16:05:13.507Z,0
2017-01-22T16:06:28.174Z,0
2017-01-22T16:07:41.673Z,0
2017-01-22T16:08:55.188Z,0
2017-01-22T16:10:08.700Z,0
2017-01-22T16:11:22.327Z,0
2017-01-22T16:12:36.575Z,0
2017-01-22T16:13:50.080Z,0
2017-01-22T16:15:03.547Z,0
2017-01-22T16:16:17.696Z,0
2017-01-22T16:17:31.260Z,0
2017-01-22T16:18:45.100Z,0
2017-01-22T16:19:58.699Z,0
2017-01-22T16:21:12.620Z,0
2017-01-22T16:22:26.277Z,0
2017-01-22T16:23:39.821Z,0
2017-01-22T16:24:53.679Z,0
2017-01-22T16:26:07.433Z,0
2017-01-22T16:27:21.027Z,0
2017-01-22T16:28:34.509Z,0
2017-01-22T16:29:48.122Z,0
2017-01-22T16:31:02.017Z,0
2017-01-22T16:32:16.803Z,0
2017-01-22T16:34:21.473Z,0
2017-01-22T16:35:35.006Z,0
2017-01-22T16:36:49.172Z,0
2017-01-22T16:40:46.408Z,0
2017-01-22T16:42:00.320Z,0
2017-01-22T16:43:14.412Z,0
2017-01-22T16:44:27.955Z,0
2017-01-22T16:45:42.804Z,0
2017-01-22T16:46:56.251Z,0
2017-01-22T16:48:10.662Z,0
2017-01-22T16:49:24.610Z,0
2017-01-22T16:50:38.131Z,0
2017-01-22T16:51:52.171Z,0
2017-01-22T16:53:05.629Z,0
2017-01-22T16:54:19.271Z,0
2017-01-22T16:55:33.366Z,0
2017-01-22T16:56:47.334Z,0
2017-01-22T16:58:00.946Z,0
2017-01-22T16:59:14.910Z,0
2017-01-22T17:00:28.835Z,0
2017-01-22T17:01:42.794Z,0
2017-01-22T17:02:57.670Z,0
2017-01-22T17:04:11.579Z,0
2017-01-22T17:05:25.716Z,0
2017-01-22T17:06:42.597Z,0
2017-01-22T17:07:56.443Z,0
2017-01-22T17:09:09.990Z,0
2017-01-22T17:10:23.673Z,0
2017-01-22T17:11:38.282Z,0
2017-01-22T17:12:52.019Z,0
2017-01-22T17:14:06.663Z,0
2017-01-22T17:15:20.517Z,0
2017-01-22T17:16:35.051Z,0
2017-01-22T17:17:50.094Z,0
2017-01-22T17:19:03.768Z,0
2017-01-22T17:20:17.581Z,0
2017-01-22T17:21:31.102Z,0
2017-01-22T17:22:44.752Z,0
2017-01-22T17:23:58.837Z,0
2017-01-22T17:25:12.498Z,0
2017-01-22T17:26:26.086Z,0
2017-01-22T17:27:39.729Z,0
2017-01-22T17:28:53.854Z,0
2017-01-22T17:30:07.297Z,0
2017-01-22T17:31:20.805Z,0
2017-01-22T17:32:34.812Z,0
2017-01-22T17:33:48.290Z,0
2017-01-22T17:35:01.885Z,0
2017-01-22T17:36:15.451Z,0
2017-01-22T17:37:30.636Z,0
2017-01-22T17:38:44.437Z,0
2017-01-22T17:39:58.020Z,0
2017-01-22T17:41:12.528Z,0
2017-01-22T17:42:26.444Z,0
2017-01-22T17:43:39.954Z,0
2017-01-22T17:44:53.831Z,0
2017-01-22T17:46:07.411Z,0
2017-01-22T17:47:21.077Z,0
2017-01-22T17:48:34.722Z,0
2017-01-22T17:49:48.198Z,0
2017-01-22T17:51:02.602Z,0
2017-01-22T17:52:16.100Z,0
2017-01-22T17:53:30.090Z,0
2017-01-22T17:54:44.144Z,0
2017-01-22T17:55:57.750Z,0